Abel Tasman — PCVM — position and weather

sailwx.info

Track history (hours):
 
Tides and Currents Weather Stations Pressure Air Temp Water Temp Dewpoint Dewpoint Depression Visibility Wind Speed Wind Dir Waves Ship Positions

Abel Tasman (Netherlands)

Last reported at 2020-Oct-01 08:00 UTC. Time now 2020-Oct-01 08:20 UTC.
Position N 53°48' E 007°57'.

Length 38 m; draft 2.4 m.

Type: Sailing vessel. MMSI: 245877000.

Date/timePositionNaut miles runAvg speedWind from/ knotsBaromVisibWave heightAir tempDewpointWater temp
2020-Oct-01 08:00N 53°48' E 007°57'35 2.1
2020-Sep-30 15:00N 53°51' E 008°57'8 3.6
2020-Sep-30 12:50N 53°54' E 009°09'20 0.9
2020-Sep-29 13:34N 54°11' E 009°27'4 7.3
2020-Sep-29 13:00N 54°12' E 009°34'10 6.8
2020-Sep-29 11:28N 54°21' E 009°45'10 6.5
2020-Sep-29 10:00N 54°22' E 010°01'5 1.5
2020-Sep-29 07:00N 54°22' E 010°09'0 0.0
2020-Sep-29 05:00N 54°22' E 010°09'0 0.0
2020-Sep-29 04:30N 54°22' E 010°09'0 0.0
2020-Sep-29 00:30N 54°22' E 010°09'0 0.0
2020-Sep-28 22:00N 54°22' E 010°09'0 0.0
2020-Sep-28 20:00N 54°22' E 010°09'0 0.0
2020-Sep-28 19:30N 54°22' E 010°09'0 0.0
2020-Sep-28 18:30N 54°22' E 010°09'0 0.0
2020-Sep-28 17:30N 54°22' E 010°09'0 0.0
2020-Sep-28 17:00N 54°22' E 010°09'0 0.0
2020-Sep-28 16:00N 54°22' E 010°09'0 0.0
2020-Sep-28 14:00N 54°22' E 010°09'0 0.0
2020-Sep-28 12:00N 54°22' E 010°09'0 0.0
2020-Sep-28 11:30N 54°22' E 010°09'0 0.0
2020-Sep-28 11:00N 54°22' E 010°09'0 0.0
2020-Sep-28 10:30N 54°22' E 010°09'0 0.0
2020-Sep-28 08:31N 54°22' E 010°09'0 0.0
2020-Sep-28 07:31N 54°22' E 010°09'0 0.0
2020-Sep-28 03:01N 54°22' E 010°09'0 0.0
2020-Sep-28 01:30N 54°22' E 010°09'0 0.0
2020-Sep-28 01:00N 54°22' E 010°09'0 0.0
2020-Sep-27 22:01N 54°22' E 010°09'0 0.0
2020-Sep-27 20:00N 54°22' E 010°09'0 0.0
2020-Sep-27 19:00N 54°22' E 010°09'0 0.0
2020-Sep-27 17:00N 54°22' E 010°09'2 0.8
2020-Sep-27 14:00N 54°24' E 010°12'7 6.6
2020-Sep-27 13:00N 54°30' E 010°16'21 7.1
2020-Sep-27 10:00N 54°49' E 010°32'2 0.9
2020-Sep-27 07:27N 54°51' E 010°31'0 0.0
2020-Sep-27 02:57N 54°51' E 010°31'0 0.0
2020-Sep-26 22:57N 54°51' E 010°31'0 0.0
2020-Sep-26 22:00N 54°51' E 010°31'0 0.0
2020-Sep-26 18:57N 54°51' E 010°31'3 0.8
2020-Sep-26 15:00N 54°48' E 010°33'16 4.1
2020-Sep-26 10:59N 54°35' E 010°17'6 4.3
2020-Sep-26 09:30N 54°29' E 010°12'7 4.6
2020-Sep-26 07:57N 54°22' E 010°09'0 0.0
2020-Sep-26 07:29N 54°22' E 010°09'0 0.0
2020-Sep-26 06:59N 54°22' E 010°09'0 0.0
2020-Sep-26 06:29N 54°22' E 010°09'0 0.0
2020-Sep-26 05:29N 54°22' E 010°09'0 0.0
2020-Sep-26 00:29N 54°22' E 010°09'0 0.0
2020-Sep-25 23:29N 54°22' E 010°09'0 0.0
2020-Sep-25 20:29N 54°22' E 010°09'0 0.0
2020-Sep-25 19:26N 54°22' E 010°09'0 0.0
2020-Sep-25 14:30N 54°22' E 010°09'0 0.0
2020-Sep-25 13:59N 54°22' E 010°09'0 0.0
2020-Sep-25 13:17N 54°22' E 010°09'15 3.2
2020-Sep-25 08:30N 54°37' E 010°03'3 3.3
2020-Sep-25 07:30N 54°40' E 010°02'3 4.3
2020-Sep-25 06:50N 54°40' E 009°57'1 1.0
2020-Sep-25 05:59N 54°40' E 009°56'0 0.0
2020-Sep-25 03:59N 54°40' E 009°56'0 0.0
2020-Sep-25 00:21N 54°40' E 009°56'21 0.5
2020-Sep-23 10:06N 54°59' E 010°11'9 1.2
2020-Sep-23 01:58N 54°53' E 010°25'0 0.0
2020-Sep-22 22:58N 54°53' E 010°25'0 0.0
2020-Sep-22 16:28N 54°53' E 010°25'0 0.0
2020-Sep-22 15:58N 54°53' E 010°25'0 0.0
2020-Sep-22 15:28N 54°53' E 010°25'3 0.9
2020-Sep-22 12:00N 54°56' E 010°27'0 0.3
2020-Sep-22 11:00N 54°57' E 010°27'3 3.3
2020-Sep-22 10:00N 54°54' E 010°32'1 2.6
2020-Sep-22 09:30N 54°53' E 010°33'2 1.4
2020-Sep-22 07:56N 54°51' E 010°31'0 0.0
2020-Sep-22 07:29N 54°51' E 010°31'0 0.0
2020-Sep-22 06:59N 54°51' E 010°31'0 0.0
2020-Sep-22 04:59N 54°51' E 010°31'0 0.0
2020-Sep-22 03:59N 54°51' E 010°31'0 0.0
2020-Sep-22 03:29N 54°51' E 010°31'0 0.0
2020-Sep-21 22:59N 54°51' E 010°31'0 0.0
2020-Sep-21 21:59N 54°51' E 010°31'0 0.0
2020-Sep-21 21:29N 54°51' E 010°31'0 0.0
2020-Sep-21 20:29N 54°51' E 010°31'0 0.0
2020-Sep-21 17:29N 54°51' E 010°31'1 0.9
2020-Sep-21 16:00N 54°50' E 010°33'7 3.6
2020-Sep-21 14:00N 54°44' E 010°26'13 3.6
2020-Sep-21 10:30N 54°32' E 010°18'11 5.4
2020-Sep-21 08:31N 54°23' E 010°10'  
Track history (hours):
 
Tides and Currents Weather Stations Pressure Air Temp Water Temp Dewpoint Dewpoint Depression Visibility Wind Speed Wind Dir Waves Ship Positions

Abel Tasman (Netherlands)

Last reported at 2020-Oct-01 08:00 UTC. Time now 2020-Oct-01 08:20 UTC.
Position N 53°48' E 007°57'.

Length 38 m; draft 2.4 m.

Type: Sailing vessel. MMSI: 245877000.

Date/timePositionNaut miles runAvg speedWind from/ knotsBaromVisibWave heightAir tempDewpointWater temp
2020-Oct-01 08:00N 53°48' E 007°57'35 2.1
2020-Sep-30 15:00N 53°51' E 008°57'8 3.6
2020-Sep-30 12:50N 53°54' E 009°09'20 0.9
2020-Sep-29 13:34N 54°11' E 009°27'4 7.3
2020-Sep-29 13:00N 54°12' E 009°34'10 6.8
2020-Sep-29 11:28N 54°21' E 009°45'10 6.5
2020-Sep-29 10:00N 54°22' E 010°01'5 1.5
2020-Sep-29 07:00N 54°22' E 010°09'0 0.0
2020-Sep-29 05:00N 54°22' E 010°09'0 0.0
2020-Sep-29 04:30N 54°22' E 010°09'0 0.0
2020-Sep-29 00:30N 54°22' E 010°09'0 0.0
2020-Sep-28 22:00N 54°22' E 010°09'0 0.0
2020-Sep-28 20:00N 54°22' E 010°09'0 0.0
2020-Sep-28 19:30N 54°22' E 010°09'0 0.0
2020-Sep-28 18:30N 54°22' E 010°09'0 0.0
2020-Sep-28 17:30N 54°22' E 010°09'0 0.0
2020-Sep-28 17:00N 54°22' E 010°09'0 0.0
2020-Sep-28 16:00N 54°22' E 010°09'0 0.0
2020-Sep-28 14:00N 54°22' E 010°09'0 0.0
2020-Sep-28 12:00N 54°22' E 010°09'0 0.0
2020-Sep-28 11:30N 54°22' E 010°09'0 0.0
2020-Sep-28 11:00N 54°22' E 010°09'0 0.0
2020-Sep-28 10:30N 54°22' E 010°09'0 0.0
2020-Sep-28 08:31N 54°22' E 010°09'0 0.0
2020-Sep-28 07:31N 54°22' E 010°09'0 0.0
2020-Sep-28 03:01N 54°22' E 010°09'0 0.0
2020-Sep-28 01:30N 54°22' E 010°09'0 0.0
2020-Sep-28 01:00N 54°22' E 010°09'0 0.0
2020-Sep-27 22:01N 54°22' E 010°09'0 0.0
2020-Sep-27 20:00N 54°22' E 010°09'0 0.0
2020-Sep-27 19:00N 54°22' E 010°09'0 0.0
2020-Sep-27 17:00N 54°22' E 010°09'2 0.8
2020-Sep-27 14:00N 54°24' E 010°12'7 6.6
2020-Sep-27 13:00N 54°30' E 010°16'21 7.1
2020-Sep-27 10:00N 54°49' E 010°32'2 0.9
2020-Sep-27 07:27N 54°51' E 010°31'0 0.0
2020-Sep-27 02:57N 54°51' E 010°31'0 0.0
2020-Sep-26 22:57N 54°51' E 010°31'0 0.0
2020-Sep-26 22:00N 54°51' E 010°31'0 0.0
2020-Sep-26 18:57N 54°51' E 010°31'3 0.8
2020-Sep-26 15:00N 54°48' E 010°33'16 4.1
2020-Sep-26 10:59N 54°35' E 010°17'6 4.3
2020-Sep-26 09:30N 54°29' E 010°12'7 4.6
2020-Sep-26 07:57N 54°22' E 010°09'0 0.0
2020-Sep-26 07:29N 54°22' E 010°09'0 0.0
2020-Sep-26 06:59N 54°22' E 010°09'0 0.0
2020-Sep-26 06:29N 54°22' E 010°09'0 0.0
2020-Sep-26 05:29N 54°22' E 010°09'0 0.0
2020-Sep-26 00:29N 54°22' E 010°09'0 0.0
2020-Sep-25 23:29N 54°22' E 010°09'0 0.0
2020-Sep-25 20:29N 54°22' E 010°09'0 0.0
2020-Sep-25 19:26N 54°22' E 010°09'0 0.0
2020-Sep-25 14:30N 54°22' E 010°09'0 0.0
2020-Sep-25 13:59N 54°22' E 010°09'0 0.0
2020-Sep-25 13:17N 54°22' E 010°09'15 3.2
2020-Sep-25 08:30N 54°37' E 010°03'3 3.3
2020-Sep-25 07:30N 54°40' E 010°02'3 4.3
2020-Sep-25 06:50N 54°40' E 009°57'1 1.0
2020-Sep-25 05:59N 54°40' E 009°56'0 0.0
2020-Sep-25 03:59N 54°40' E 009°56'0 0.0
2020-Sep-25 00:21N 54°40' E 009°56'21 0.5
2020-Sep-23 10:06N 54°59' E 010°11'9 1.2
2020-Sep-23 01:58N 54°53' E 010°25'0 0.0
2020-Sep-22 22:58N 54°53' E 010°25'0 0.0
2020-Sep-22 16:28N 54°53' E 010°25'0 0.0
2020-Sep-22 15:58N 54°53' E 010°25'0 0.0
2020-Sep-22 15:28N 54°53' E 010°25'3 0.9
2020-Sep-22 12:00N 54°56' E 010°27'0 0.3
2020-Sep-22 11:00N 54°57' E 010°27'3 3.3
2020-Sep-22 10:00N 54°54' E 010°32'1 2.6
2020-Sep-22 09:30N 54°53' E 010°33'2 1.4
2020-Sep-22 07:56N 54°51' E 010°31'0 0.0
2020-Sep-22 07:29N 54°51' E 010°31'0 0.0
2020-Sep-22 06:59N 54°51' E 010°31'0 0.0
2020-Sep-22 04:59N 54°51' E 010°31'0 0.0
2020-Sep-22 03:59N 54°51' E 010°31'0 0.0
2020-Sep-22 03:29N 54°51' E 010°31'0 0.0
2020-Sep-21 22:59N 54°51' E 010°31'0 0.0
2020-Sep-21 21:59N 54°51' E 010°31'0 0.0
2020-Sep-21 21:29N 54°51' E 010°31'0 0.0
2020-Sep-21 20:29N 54°51' E 010°31'0 0.0
2020-Sep-21 17:29N 54°51' E 010°31'1 0.9
2020-Sep-21 16:00N 54°50' E 010°33'7 3.6
2020-Sep-21 14:00N 54°44' E 010°26'13 3.6
2020-Sep-21 10:30N 54°32' E 010°18'11 5.4
2020-Sep-21 08:31N 54°23' E 010°10'  

Dump ship's entire track history